sensor_id;sensor_type;location;lat;lon;timestamp;P1;durP1;ratioP1;P2;durP2;ratioP2
10705;SDS011;5404;42.656;23.336;2023-07-20T00:01:36;13.27;;;2.90;;
10705;SDS011;5404;42.656;23.336;2023-07-20T00:04:03;17.48;;;3.63;;
10705;SDS011;5404;42.656;23.336;2023-07-20T00:06:28;14.07;;;3.55;;
10705;SDS011;5404;42.656;23.336;2023-07-20T00:08:54;8.55;;;3.05;;
10705;SDS011;5404;42.656;23.336;2023-07-20T00:11:24;17.55;;;3.65;;
10705;SDS011;5404;42.656;23.336;2023-07-20T00:13:51;11.10;;;3.00;;
10705;SDS011;5404;42.656;23.336;2023-07-20T00:16:17;12.80;;;3.33;;
10705;SDS011;5404;42.656;23.336;2023-07-20T00:18:42;12.25;;;2.97;;
10705;SDS011;5404;42.656;23.336;2023-07-20T00:21:08;11.80;;;3.60;;
10705;SDS011;5404;42.656;23.336;2023-07-20T00:23:33;9.98;;;2.90;;
10705;SDS011;5404;42.656;23.336;2023-07-20T00:25:59;12.25;;;3.53;;
10705;SDS011;5404;42.656;23.336;2023-07-20T00:28:24;11.35;;;2.83;;
10705;SDS011;5404;42.656;23.336;2023-07-20T00:30:50;7.68;;;3.00;;
10705;SDS011;5404;42.656;23.336;2023-07-20T00:33:16;15.55;;;3.80;;
10705;SDS011;5404;42.656;23.336;2023-07-20T00:35:43;7.22;;;3.10;;
10705;SDS011;5404;42.656;23.336;2023-07-20T00:38:08;14.15;;;3.40;;
10705;SDS011;5404;42.656;23.336;2023-07-20T00:40:40;16.98;;;3.65;;
10705;SDS011;5404;42.656;23.336;2023-07-20T00:43:06;16.60;;;3.58;;
10705;SDS011;5404;42.656;23.336;2023-07-20T00:45:33;10.32;;;3.33;;
10705;SDS011;5404;42.656;23.336;2023-07-20T00:47:59;9.35;;;3.10;;
10705;SDS011;5404;42.656;23.336;2023-07-20T00:50:27;4.78;;;2.55;;
10705;SDS011;5404;42.656;23.336;2023-07-20T00:52:54;10.48;;;3.38;;
10705;SDS011;5404;42.656;23.336;2023-07-20T00:55:22;13.35;;;3.00;;
10705;SDS011;5404;42.656;23.336;2023-07-20T00:57:48;9.90;;;3.58;;
10705;SDS011;5404;42.656;23.336;2023-07-20T01:00:14;18.17;;;3.75;;
10705;SDS011;5404;42.656;23.336;2023-07-20T01:02:40;7.70;;;2.85;;
10705;SDS011;5404;42.656;23.336;2023-07-20T01:05:06;9.43;;;3.35;;
10705;SDS011;5404;42.656;23.336;2023-07-20T01:07:34;7.95;;;3.20;;
10705;SDS011;5404;42.656;23.336;2023-07-20T01:10:10;11.82;;;4.07;;
10705;SDS011;5404;42.656;23.336;2023-07-20T01:12:50;13.95;;;3.78;;
10705;SDS011;5404;42.656;23.336;2023-07-20T01:15:17;12.73;;;3.55;;
10705;SDS011;5404;42.656;23.336;2023-07-20T01:17:42;8.80;;;3.00;;
10705;SDS011;5404;42.656;23.336;2023-07-20T01:20:10;17.10;;;3.45;;
10705;SDS011;5404;42.656;23.336;2023-07-20T01:33:04;8.65;;;2.97;;
10705;SDS011;5404;42.656;23.336;2023-07-20T01:35:32;14.27;;;3.40;;
10705;SDS011;5404;42.656;23.336;2023-07-20T01:37:59;12.45;;;3.53;;
10705;SDS011;5404;42.656;23.336;2023-07-20T01:40:25;6.90;;;3.40;;
10705;SDS011;5404;42.656;23.336;2023-07-20T01:42:52;13.00;;;3.28;;
10705;SDS011;5404;42.656;23.336;2023-07-20T01:45:18;14.60;;;3.85;;
10705;SDS011;5404;42.656;23.336;2023-07-20T01:47:44;17.55;;;3.75;;
10705;SDS011;5404;42.656;23.336;2023-07-20T01:50:10;17.45;;;4.05;;
10705;SDS011;5404;42.656;23.336;2023-07-20T01:52:35;9.88;;;3.15;;
10705;SDS011;5404;42.656;23.336;2023-07-20T01:55:01;8.35;;;3.42;;
10705;SDS011;5404;42.656;23.336;2023-07-20T01:57:28;16.88;;;3.67;;
10705;SDS011;5404;42.656;23.336;2023-07-20T01:59:53;12.45;;;3.50;;
10705;SDS011;5404;42.656;23.336;2023-07-20T02:02:20;11.98;;;3.42;;
10705;SDS011;5404;42.656;23.336;2023-07-20T02:04:45;10.18;;;3.28;;
10705;SDS011;5404;42.656;23.336;2023-07-20T02:07:11;11.68;;;2.92;;
10705;SDS011;5404;42.656;23.336;2023-07-20T02:09:36;15.57;;;3.75;;
10705;SDS011;5404;42.656;23.336;2023-07-20T02:12:03;10.65;;;3.45;;
10705;SDS011;5404;42.656;23.336;2023-07-20T02:14:29;9.27;;;3.47;;
10705;SDS011;5404;42.656;23.336;2023-07-20T02:16:54;15.15;;;4.28;;
10705;SDS011;5404;42.656;23.336;2023-07-20T02:19:24;15.65;;;3.30;;
10705;SDS011;5404;42.656;23.336;2023-07-20T02:21:50;15.13;;;3.45;;
10705;SDS011;5404;42.656;23.336;2023-07-20T02:24:15;16.85;;;3.28;;
10705;SDS011;5404;42.656;23.336;2023-07-20T02:26:40;10.35;;;3.42;;
10705;SDS011;5404;42.656;23.336;2023-07-20T02:29:07;10.75;;;3.53;;
10705;SDS011;5404;42.656;23.336;2023-07-20T02:31:33;19.40;;;3.30;;
10705;SDS011;5404;42.656;23.336;2023-07-20T02:33:58;17.95;;;4.20;;
10705;SDS011;5404;42.656;23.336;2023-07-20T02:36:24;8.23;;;3.40;;
10705;SDS011;5404;42.656;23.336;2023-07-20T02:38:49;11.63;;;3.33;;
10705;SDS011;5404;42.656;23.336;2023-07-20T02:41:15;10.25;;;3.55;;
10705;SDS011;5404;42.656;23.336;2023-07-20T02:43:40;11.55;;;3.97;;
10705;SDS011;5404;42.656;23.336;2023-07-20T02:46:05;9.82;;;3.78;;
10705;SDS011;5404;42.656;23.336;2023-07-20T02:48:31;7.65;;;4.10;;
10705;SDS011;5404;42.656;23.336;2023-07-20T02:50:56;13.95;;;3.97;;
10705;SDS011;5404;42.656;23.336;2023-07-20T02:53:22;13.50;;;4.05;;
10705;SDS011;5404;42.656;23.336;2023-07-20T02:55:47;16.27;;;4.15;;
10705;SDS011;5404;42.656;23.336;2023-07-20T02:58:12;16.90;;;4.55;;
10705;SDS011;5404;42.656;23.336;2023-07-20T03:00:38;22.00;;;4.00;;
10705;SDS011;5404;42.656;23.336;2023-07-20T03:03:03;8.68;;;3.90;;
10705;SDS011;5404;42.656;23.336;2023-07-20T03:05:29;8.20;;;3.35;;
10705;SDS011;5404;42.656;23.336;2023-07-20T03:07:55;15.73;;;4.15;;
10705;SDS011;5404;42.656;23.336;2023-07-20T03:10:22;15.20;;;4.45;;
10705;SDS011;5404;42.656;23.336;2023-07-20T03:12:47;25.88;;;4.50;;
10705;SDS011;5404;42.656;23.336;2023-07-20T03:15:12;13.27;;;3.83;;
10705;SDS011;5404;42.656;23.336;2023-07-20T03:17:38;9.05;;;3.88;;
10705;SDS011;5404;42.656;23.336;2023-07-20T03:20:04;12.38;;;4.13;;
10705;SDS011;5404;42.656;23.336;2023-07-20T03:22:33;13.55;;;3.97;;
10705;SDS011;5404;42.656;23.336;2023-07-20T03:24:59;14.07;;;4.00;;
10705;SDS011;5404;42.656;23.336;2023-07-20T03:27:24;15.25;;;4.18;;
10705;SDS011;5404;42.656;23.336;2023-07-20T03:29:50;9.90;;;3.70;;
10705;SDS011;5404;42.656;23.336;2023-07-20T03:32:15;17.92;;;4.38;;
10705;SDS011;5404;42.656;23.336;2023-07-20T03:34:41;18.13;;;4.03;;
10705;SDS011;5404;42.656;23.336;2023-07-20T03:37:06;16.13;;;3.85;;
10705;SDS011;5404;42.656;23.336;2023-07-20T03:39:31;10.77;;;3.75;;
10705;SDS011;5404;42.656;23.336;2023-07-20T03:41:57;11.15;;;3.80;;
10705;SDS011;5404;42.656;23.336;2023-07-20T03:44:24;18.63;;;3.97;;
10705;SDS011;5404;42.656;23.336;2023-07-20T03:46:49;12.13;;;4.22;;
10705;SDS011;5404;42.656;23.336;2023-07-20T03:49:15;10.38;;;4.03;;
10705;SDS011;5404;42.656;23.336;2023-07-20T03:51:40;12.68;;;3.80;;
10705;SDS011;5404;42.656;23.336;2023-07-20T03:54:06;18.40;;;3.83;;
10705;SDS011;5404;42.656;23.336;2023-07-20T03:56:33;12.07;;;3.85;;
10705;SDS011;5404;42.656;23.336;2023-07-20T03:59:00;13.50;;;3.80;;
10705;SDS011;5404;42.656;23.336;2023-07-20T04:01:26;9.82;;;3.80;;
10705;SDS011;5404;42.656;23.336;2023-07-20T04:03:51;9.43;;;3.60;;
10705;SDS011;5404;42.656;23.336;2023-07-20T04:06:17;13.60;;;4.18;;
10705;SDS011;5404;42.656;23.336;2023-07-20T04:08:42;19.33;;;4.30;;
10705;SDS011;5404;42.656;23.336;2023-07-20T04:11:08;22.83;;;5.50;;
10705;SDS011;5404;42.656;23.336;2023-07-20T04:13:33;17.95;;;4.47;;
10705;SDS011;5404;42.656;23.336;2023-07-20T04:16:00;13.25;;;4.03;;
10705;SDS011;5404;42.656;23.336;2023-07-20T04:18:26;14.02;;;4.07;;
10705;SDS011;5404;42.656;23.336;2023-07-20T04:20:51;17.40;;;4.90;;
10705;SDS011;5404;42.656;23.336;2023-07-20T04:23:16;20.83;;;4.55;;
10705;SDS011;5404;42.656;23.336;2023-07-20T04:25:42;15.23;;;4.03;;
10705;SDS011;5404;42.656;23.336;2023-07-20T04:28:07;10.38;;;3.85;;
10705;SDS011;5404;42.656;23.336;2023-07-20T04:30:36;20.00;;;4.50;;
10705;SDS011;5404;42.656;23.336;2023-07-20T04:33:02;19.95;;;4.43;;
10705;SDS011;5404;42.656;23.336;2023-07-20T04:35:45;22.10;;;5.00;;
10705;SDS011;5404;42.656;23.336;2023-07-20T04:38:15;18.20;;;5.03;;
10705;SDS011;5404;42.656;23.336;2023-07-20T04:40:42;11.10;;;4.32;;
10705;SDS011;5404;42.656;23.336;2023-07-20T04:43:11;12.77;;;4.05;;
10705;SDS011;5404;42.656;23.336;2023-07-20T04:45:37;14.50;;;5.25;;
10705;SDS011;5404;42.656;23.336;2023-07-20T04:48:04;17.67;;;4.40;;
10705;SDS011;5404;42.656;23.336;2023-07-20T04:50:32;12.38;;;4.45;;
10705;SDS011;5404;42.656;23.336;2023-07-20T04:52:57;17.45;;;4.25;;
10705;SDS011;5404;42.656;23.336;2023-07-20T04:55:22;12.98;;;4.10;;
10705;SDS011;5404;42.656;23.336;2023-07-20T04:57:49;17.00;;;4.28;;
10705;SDS011;5404;42.656;23.336;2023-07-20T05:00:15;18.73;;;4.40;;
10705;SDS011;5404;42.656;23.336;2023-07-20T05:02:42;16.80;;;4.28;;
10705;SDS011;5404;42.656;23.336;2023-07-20T05:05:08;13.30;;;4.15;;
10705;SDS011;5404;42.656;23.336;2023-07-20T05:07:34;17.10;;;5.00;;
10705;SDS011;5404;42.656;23.336;2023-07-20T05:09:59;10.05;;;4.32;;
10705;SDS011;5404;42.656;23.336;2023-07-20T05:12:25;13.23;;;5.40;;
10705;SDS011;5404;42.656;23.336;2023-07-20T05:14:50;11.27;;;4.72;;
10705;SDS011;5404;42.656;23.336;2023-07-20T05:17:16;13.30;;;5.05;;
10705;SDS011;5404;42.656;23.336;2023-07-20T05:19:41;18.25;;;5.43;;
10705;SDS011;5404;42.656;23.336;2023-07-20T05:22:07;14.55;;;5.25;;
10705;SDS011;5404;42.656;23.336;2023-07-20T05:24:32;13.98;;;5.07;;
10705;SDS011;5404;42.656;23.336;2023-07-20T05:26:58;17.92;;;5.03;;
10705;SDS011;5404;42.656;23.336;2023-07-20T05:29:24;13.57;;;4.13;;
10705;SDS011;5404;42.656;23.336;2023-07-20T05:31:50;16.00;;;3.90;;
10705;SDS011;5404;42.656;23.336;2023-07-20T05:34:15;18.75;;;4.68;;
10705;SDS011;5404;42.656;23.336;2023-07-20T05:36:41;18.88;;;4.50;;
10705;SDS011;5404;42.656;23.336;2023-07-20T05:39:06;12.38;;;4.47;;
10705;SDS011;5404;42.656;23.336;2023-07-20T05:41:32;17.60;;;5.05;;
10705;SDS011;5404;42.656;23.336;2023-07-20T05:43:57;10.80;;;4.55;;
10705;SDS011;5404;42.656;23.336;2023-07-20T05:46:22;16.65;;;4.10;;
10705;SDS011;5404;42.656;23.336;2023-07-20T05:48:49;16.85;;;4.05;;
10705;SDS011;5404;42.656;23.336;2023-07-20T05:51:14;20.10;;;5.15;;
10705;SDS011;5404;42.656;23.336;2023-07-20T05:53:40;21.90;;;5.28;;
10705;SDS011;5404;42.656;23.336;2023-07-20T05:56:06;19.73;;;6.22;;
10705;SDS011;5404;42.656;23.336;2023-07-20T06:01:00;21.40;;;4.32;;
10705;SDS011;5404;42.656;23.336;2023-07-20T06:03:27;12.15;;;4.95;;
10705;SDS011;5404;42.656;23.336;2023-07-20T06:05:57;20.25;;;4.72;;
10705;SDS011;5404;42.656;23.336;2023-07-20T06:08:24;14.43;;;4.40;;
10705;SDS011;5404;42.656;23.336;2023-07-20T06:10:50;19.98;;;4.57;;
10705;SDS011;5404;42.656;23.336;2023-07-20T06:13:17;8.75;;;4.05;;
10705;SDS011;5404;42.656;23.336;2023-07-20T06:15:44;24.10;;;5.25;;
10705;SDS011;5404;42.656;23.336;2023-07-20T06:18:09;13.35;;;3.97;;
10705;SDS011;5404;42.656;23.336;2023-07-20T06:20:35;28.83;;;4.65;;
10705;SDS011;5404;42.656;23.336;2023-07-20T06:23:00;15.75;;;5.00;;
10705;SDS011;5404;42.656;23.336;2023-07-20T06:25:25;11.82;;;5.03;;
10705;SDS011;5404;42.656;23.336;2023-07-20T06:27:54;13.43;;;4.50;;
10705;SDS011;5404;42.656;23.336;2023-07-20T06:30:20;17.65;;;4.65;;
10705;SDS011;5404;42.656;23.336;2023-07-20T06:32:46;17.55;;;4.45;;
10705;SDS011;5404;42.656;23.336;2023-07-20T06:35:11;24.30;;;7.28;;
10705;SDS011;5404;42.656;23.336;2023-07-20T06:37:37;19.17;;;5.20;;
10705;SDS011;5404;42.656;23.336;2023-07-20T06:40:02;18.50;;;4.78;;
10705;SDS011;5404;42.656;23.336;2023-07-20T06:42:29;26.88;;;6.45;;
10705;SDS011;5404;42.656;23.336;2023-07-20T06:44:55;19.63;;;4.65;;
10705;SDS011;5404;42.656;23.336;2023-07-20T06:47:20;20.58;;;7.03;;
10705;SDS011;5404;42.656;23.336;2023-07-20T06:49:45;15.38;;;4.80;;
10705;SDS011;5404;42.656;23.336;2023-07-20T06:52:11;19.75;;;4.47;;
10705;SDS011;5404;42.656;23.336;2023-07-20T06:54:36;18.17;;;5.15;;
10705;SDS011;5404;42.656;23.336;2023-07-20T06:57:02;19.70;;;5.22;;
10705;SDS011;5404;42.656;23.336;2023-07-20T06:59:27;24.02;;;5.35;;
10705;SDS011;5404;42.656;23.336;2023-07-20T07:01:53;12.95;;;4.40;;
10705;SDS011;5404;42.656;23.336;2023-07-20T07:04:18;11.73;;;4.60;;
10705;SDS011;5404;42.656;23.336;2023-07-20T07:06:44;12.57;;;4.00;;
10705;SDS011;5404;42.656;23.336;2023-07-20T07:09:09;19.50;;;3.80;;
10705;SDS011;5404;42.656;23.336;2023-07-20T07:11:35;17.38;;;4.47;;
10705;SDS011;5404;42.656;23.336;2023-07-20T07:14:00;21.65;;;4.63;;
10705;SDS011;5404;42.656;23.336;2023-07-20T07:16:27;16.35;;;4.35;;
10705;SDS011;5404;42.656;23.336;2023-07-20T07:18:52;16.63;;;4.45;;
10705;SDS011;5404;42.656;23.336;2023-07-20T07:21:18;18.17;;;4.80;;
10705;SDS011;5404;42.656;23.336;2023-07-20T07:23:43;18.83;;;5.35;;
10705;SDS011;5404;42.656;23.336;2023-07-20T07:26:10;27.05;;;5.93;;
10705;SDS011;5404;42.656;23.336;2023-07-20T07:28:36;25.40;;;5.28;;
10705;SDS011;5404;42.656;23.336;2023-07-20T07:31:04;26.08;;;5.47;;
10705;SDS011;5404;42.656;23.336;2023-07-20T07:33:30;20.90;;;6.05;;
10705;SDS011;5404;42.656;23.336;2023-07-20T07:35:56;13.13;;;5.63;;
10705;SDS011;5404;42.656;23.336;2023-07-20T07:38:22;27.40;;;6.05;;
10705;SDS011;5404;42.656;23.336;2023-07-20T07:40:47;16.58;;;5.10;;
10705;SDS011;5404;42.656;23.336;2023-07-20T07:43:13;37.72;;;6.90;;
10705;SDS011;5404;42.656;23.336;2023-07-20T07:45:39;15.05;;;5.70;;
10705;SDS011;5404;42.656;23.336;2023-07-20T07:48:04;24.48;;;6.35;;
10705;SDS011;5404;42.656;23.336;2023-07-20T07:50:30;14.43;;;5.38;;
10705;SDS011;5404;42.656;23.336;2023-07-20T07:52:56;22.13;;;6.18;;
10705;SDS011;5404;42.656;23.336;2023-07-20T07:55:22;26.33;;;5.85;;
10705;SDS011;5404;42.656;23.336;2023-07-20T07:57:47;24.50;;;5.93;;
10705;SDS011;5404;42.656;23.336;2023-07-20T08:00:13;19.30;;;5.30;;
10705;SDS011;5404;42.656;23.336;2023-07-20T08:02:42;29.88;;;6.05;;
10705;SDS011;5404;42.656;23.336;2023-07-20T08:05:08;18.00;;;5.43;;
10705;SDS011;5404;42.656;23.336;2023-07-20T08:07:35;22.77;;;5.85;;
10705;SDS011;5404;42.656;23.336;2023-07-20T08:10:02;15.20;;;5.45;;
10705;SDS011;5404;42.656;23.336;2023-07-20T08:12:28;24.40;;;5.35;;
10705;SDS011;5404;42.656;23.336;2023-07-20T08:14:53;16.73;;;4.70;;
10705;SDS011;5404;42.656;23.336;2023-07-20T08:17:19;25.60;;;5.40;;
10705;SDS011;5404;42.656;23.336;2023-07-20T08:19:45;10.55;;;4.15;;
10705;SDS011;5404;42.656;23.336;2023-07-20T08:22:11;18.85;;;4.65;;
10705;SDS011;5404;42.656;23.336;2023-07-20T08:24:40;23.30;;;5.35;;
10705;SDS011;5404;42.656;23.336;2023-07-20T08:27:06;38.20;;;4.97;;
10705;SDS011;5404;42.656;23.336;2023-07-20T08:29:33;24.45;;;4.32;;
10705;SDS011;5404;42.656;23.336;2023-07-20T08:32:00;21.90;;;4.78;;
10705;SDS011;5404;42.656;23.336;2023-07-20T08:34:26;16.65;;;3.55;;
10705;SDS011;5404;42.656;23.336;2023-07-20T08:36:51;23.23;;;4.63;;
10705;SDS011;5404;42.656;23.336;2023-07-20T08:39:17;31.67;;;5.00;;
10705;SDS011;5404;42.656;23.336;2023-07-20T08:41:43;17.38;;;3.17;;
10705;SDS011;5404;42.656;23.336;2023-07-20T08:44:09;14.23;;;3.53;;
10705;SDS011;5404;42.656;23.336;2023-07-20T08:46:35;15.48;;;3.33;;
10705;SDS011;5404;42.656;23.336;2023-07-20T08:49:03;22.55;;;3.08;;
10705;SDS011;5404;42.656;23.336;2023-07-20T08:51:30;15.57;;;3.42;;
10705;SDS011;5404;42.656;23.336;2023-07-20T08:53:57;18.83;;;4.18;;
10705;SDS011;5404;42.656;23.336;2023-07-20T08:56:23;12.30;;;3.13;;
10705;SDS011;5404;42.656;23.336;2023-07-20T08:58:51;13.13;;;3.47;;
10705;SDS011;5404;42.656;23.336;2023-07-20T09:01:18;18.65;;;3.58;;
10705;SDS011;5404;42.656;23.336;2023-07-20T09:03:44;16.25;;;3.33;;
10705;SDS011;5404;42.656;23.336;2023-07-20T09:06:11;8.55;;;3.10;;
10705;SDS011;5404;42.656;23.336;2023-07-20T09:08:37;17.98;;;3.72;;
10705;SDS011;5404;42.656;23.336;2023-07-20T09:13:34;15.23;;;3.40;;
10705;SDS011;5404;42.656;23.336;2023-07-20T09:18:26;13.40;;;3.58;;
10705;SDS011;5404;42.656;23.336;2023-07-20T09:20:53;17.48;;;3.45;;
10705;SDS011;5404;42.656;23.336;2023-07-20T09:23:29;7.40;;;3.00;;
10705;SDS011;5404;42.656;23.336;2023-07-20T09:26:09;14.15;;;2.92;;
10705;SDS011;5404;42.656;23.336;2023-07-20T09:28:42;9.50;;;3.13;;
10705;SDS011;5404;42.656;23.336;2023-07-20T09:31:18;8.80;;;3.08;;
10705;SDS011;5404;42.656;23.336;2023-07-20T09:33:45;12.30;;;3.08;;
10705;SDS011;5404;42.656;23.336;2023-07-20T09:36:12;11.63;;;3.03;;
10705;SDS011;5404;42.656;23.336;2023-07-20T09:38:38;13.15;;;3.22;;
10705;SDS011;5404;42.656;23.336;2023-07-20T09:41:05;16.02;;;2.88;;
10705;SDS011;5404;42.656;23.336;2023-07-20T09:43:34;8.93;;;2.67;;
10705;SDS011;5404;42.656;23.336;2023-07-20T09:45:59;20.00;;;3.00;;
10705;SDS011;5404;42.656;23.336;2023-07-20T09:48:25;17.40;;;2.65;;
10705;SDS011;5404;42.656;23.336;2023-07-20T09:50:51;15.98;;;2.83;;
10705;SDS011;5404;42.656;23.336;2023-07-20T09:53:18;7.43;;;3.00;;
10705;SDS011;5404;42.656;23.336;2023-07-20T09:55:45;12.02;;;2.85;;
10705;SDS011;5404;42.656;23.336;2023-07-20T09:58:12;13.93;;;3.20;;
10705;SDS011;5404;42.656;23.336;2023-07-20T10:00:39;22.60;;;3.22;;
10705;SDS011;5404;42.656;23.336;2023-07-20T10:03:08;11.27;;;2.67;;
10705;SDS011;5404;42.656;23.336;2023-07-20T10:05:36;11.88;;;3.03;;
10705;SDS011;5404;42.656;23.336;2023-07-20T10:08:10;16.35;;;3.10;;
10705;SDS011;5404;42.656;23.336;2023-07-20T10:13:03;16.83;;;3.15;;
10705;SDS011;5404;42.656;23.336;2023-07-20T10:15:35;14.37;;;3.03;;
10705;SDS011;5404;42.656;23.336;2023-07-20T10:20:59;13.48;;;3.03;;
10705;SDS011;5404;42.656;23.336;2023-07-20T10:23:26;14.00;;;3.22;;
10705;SDS011;5404;42.656;23.336;2023-07-20T10:25:54;33.33;;;3.92;;
10705;SDS011;5404;42.656;23.336;2023-07-20T10:28:20;17.85;;;2.83;;
10705;SDS011;5404;42.656;23.336;2023-07-20T10:30:48;31.38;;;3.38;;
10705;SDS011;5404;42.656;23.336;2023-07-20T10:33:15;17.58;;;2.75;;
10705;SDS011;5404;42.656;23.336;2023-07-20T10:35:53;13.20;;;2.70;;
10705;SDS011;5404;42.656;23.336;2023-07-20T10:41:57;16.08;;;2.83;;
10705;SDS011;5404;42.656;23.336;2023-07-20T10:44:05;8.43;;;2.83;;
10705;SDS011;5404;42.656;23.336;2023-07-20T10:46:33;10.77;;;3.15;;
10705;SDS011;5404;42.656;23.336;2023-07-20T10:49:00;20.27;;;3.00;;
10705;SDS011;5404;42.656;23.336;2023-07-20T10:51:29;7.93;;;2.50;;
10705;SDS011;5404;42.656;23.336;2023-07-20T10:53:56;12.45;;;3.50;;
10705;SDS011;5404;42.656;23.336;2023-07-20T10:56:25;12.30;;;3.22;;
10705;SDS011;5404;42.656;23.336;2023-07-20T10:58:57;11.18;;;2.70;;
10705;SDS011;5404;42.656;23.336;2023-07-20T11:01:27;19.48;;;3.80;;
10705;SDS011;5404;42.656;23.336;2023-07-20T11:03:56;12.80;;;2.70;;
10705;SDS011;5404;42.656;23.336;2023-07-20T11:09:03;11.27;;;3.17;;
10705;SDS011;5404;42.656;23.336;2023-07-20T11:11:43;8.43;;;3.00;;
10705;SDS011;5404;42.656;23.336;2023-07-20T11:14:25;14.82;;;2.85;;
10705;SDS011;5404;42.656;23.336;2023-07-20T11:16:51;14.13;;;3.22;;
10705;SDS011;5404;42.656;23.336;2023-07-20T11:19:19;12.90;;;4.32;;
10705;SDS011;5404;42.656;23.336;2023-07-20T11:21:50;25.77;;;3.88;;
10705;SDS011;5404;42.656;23.336;2023-07-20T11:24:17;17.85;;;3.33;;
10705;SDS011;5404;42.656;23.336;2023-07-20T11:26:47;9.65;;;3.38;;
10705;SDS011;5404;42.656;23.336;2023-07-20T11:29:16;12.18;;;3.90;;
10705;SDS011;5404;42.656;23.336;2023-07-20T11:34:17;7.05;;;3.30;;
10705;SDS011;5404;42.656;23.336;2023-07-20T11:36:46;15.07;;;4.38;;
10705;SDS011;5404;42.656;23.336;2023-07-20T11:39:13;12.10;;;4.25;;
10705;SDS011;5404;42.656;23.336;2023-07-20T11:41:49;10.27;;;3.90;;
10705;SDS011;5404;42.656;23.336;2023-07-20T11:44:16;42.60;;;5.40;;
10705;SDS011;5404;42.656;23.336;2023-07-20T11:46:43;11.57;;;3.63;;
10705;SDS011;5404;42.656;23.336;2023-07-20T11:49:09;9.00;;;3.97;;
10705;SDS011;5404;42.656;23.336;2023-07-20T11:51:35;21.15;;;4.38;;
10705;SDS011;5404;42.656;23.336;2023-07-20T11:54:05;16.58;;;5.43;;
10705;SDS011;5404;42.656;23.336;2023-07-20T11:56:34;10.15;;;4.20;;
10705;SDS011;5404;42.656;23.336;2023-07-20T11:59:00;10.93;;;4.35;;
10705;SDS011;5404;42.656;23.336;2023-07-20T12:01:27;16.40;;;4.47;;
10705;SDS011;5404;42.656;23.336;2023-07-20T12:03:57;18.05;;;4.85;;
10705;SDS011;5404;42.656;23.336;2023-07-20T12:06:24;12.40;;;4.82;;
10705;SDS011;5404;42.656;23.336;2023-07-20T12:08:50;15.93;;;5.03;;
10705;SDS011;5404;42.656;23.336;2023-07-20T12:11:35;15.30;;;4.68;;
10705;SDS011;5404;42.656;23.336;2023-07-20T12:14:03;13.35;;;5.20;;
10705;SDS011;5404;42.656;23.336;2023-07-20T12:16:31;17.60;;;4.22;;
10705;SDS011;5404;42.656;23.336;2023-07-20T12:19:04;7.85;;;4.10;;
10705;SDS011;5404;42.656;23.336;2023-07-20T12:21:31;13.80;;;4.30;;
10705;SDS011;5404;42.656;23.336;2023-07-20T12:23:57;17.52;;;4.00;;
10705;SDS011;5404;42.656;23.336;2023-07-20T12:26:23;16.30;;;3.90;;
10705;SDS011;5404;42.656;23.336;2023-07-20T12:28:50;12.32;;;3.75;;
10705;SDS011;5404;42.656;23.336;2023-07-20T12:31:16;8.93;;;3.45;;
10705;SDS011;5404;42.656;23.336;2023-07-20T12:33:42;14.23;;;3.75;;
10705;SDS011;5404;42.656;23.336;2023-07-20T12:36:08;17.73;;;4.30;;
10705;SDS011;5404;42.656;23.336;2023-07-20T12:38:34;14.38;;;4.07;;
10705;SDS011;5404;42.656;23.336;2023-07-20T12:41:01;25.00;;;3.92;;
10705;SDS011;5404;42.656;23.336;2023-07-20T12:43:29;24.42;;;3.30;;
10705;SDS011;5404;42.656;23.336;2023-07-20T12:45:57;16.63;;;4.93;;
10705;SDS011;5404;42.656;23.336;2023-07-20T12:48:22;16.58;;;3.70;;
10705;SDS011;5404;42.656;23.336;2023-07-20T12:50:49;13.13;;;3.17;;
10705;SDS011;5404;42.656;23.336;2023-07-20T12:53:15;17.33;;;3.45;;
10705;SDS011;5404;42.656;23.336;2023-07-20T12:55:40;18.15;;;3.45;;
10705;SDS011;5404;42.656;23.336;2023-07-20T12:58:06;20.85;;;5.05;;
10705;SDS011;5404;42.656;23.336;2023-07-20T13:00:32;18.00;;;3.05;;
10705;SDS011;5404;42.656;23.336;2023-07-20T13:02:57;11.43;;;3.33;;
10705;SDS011;5404;42.656;23.336;2023-07-20T13:05:23;17.00;;;3.88;;
10705;SDS011;5404;42.656;23.336;2023-07-20T13:07:49;16.42;;;3.22;;
10705;SDS011;5404;42.656;23.336;2023-07-20T13:10:15;10.25;;;2.85;;
10705;SDS011;5404;42.656;23.336;2023-07-20T13:12:41;12.18;;;3.22;;
10705;SDS011;5404;42.656;23.336;2023-07-20T13:15:07;12.38;;;3.30;;
10705;SDS011;5404;42.656;23.336;2023-07-20T13:17:34;18.30;;;2.88;;
10705;SDS011;5404;42.656;23.336;2023-07-20T13:20:00;14.75;;;3.33;;
10705;SDS011;5404;42.656;23.336;2023-07-20T13:22:26;15.82;;;3.10;;
10705;SDS011;5404;42.656;23.336;2023-07-20T13:24:52;20.70;;;3.53;;
10705;SDS011;5404;42.656;23.336;2023-07-20T13:27:19;11.82;;;3.10;;
10705;SDS011;5404;42.656;23.336;2023-07-20T13:29:45;13.93;;;3.50;;
10705;SDS011;5404;42.656;23.336;2023-07-20T13:32:14;12.75;;;3.40;;
10705;SDS011;5404;42.656;23.336;2023-07-20T13:34:40;10.88;;;3.15;;
10705;SDS011;5404;42.656;23.336;2023-07-20T13:37:05;12.40;;;4.00;;
10705;SDS011;5404;42.656;23.336;2023-07-20T13:39:31;20.77;;;3.22;;
10705;SDS011;5404;42.656;23.336;2023-07-20T13:41:57;10.00;;;3.10;;
10705;SDS011;5404;42.656;23.336;2023-07-20T13:44:22;16.52;;;3.25;;
10705;SDS011;5404;42.656;23.336;2023-07-20T13:46:48;12.10;;;3.70;;
10705;SDS011;5404;42.656;23.336;2023-07-20T13:49:14;11.05;;;2.80;;
10705;SDS011;5404;42.656;23.336;2023-07-20T13:51:43;13.00;;;3.30;;
10705;SDS011;5404;42.656;23.336;2023-07-20T13:56:34;8.68;;;2.88;;
10705;SDS011;5404;42.656;23.336;2023-07-20T13:59:00;10.82;;;3.15;;
10705;SDS011;5404;42.656;23.336;2023-07-20T14:01:26;11.18;;;2.72;;
10705;SDS011;5404;42.656;23.336;2023-07-20T14:03:53;15.05;;;3.67;;
10705;SDS011;5404;42.656;23.336;2023-07-20T14:06:20;11.80;;;3.38;;
10705;SDS011;5404;42.656;23.336;2023-07-20T14:08:46;28.98;;;4.00;;
10705;SDS011;5404;42.656;23.336;2023-07-20T14:11:12;11.55;;;2.80;;
10705;SDS011;5404;42.656;23.336;2023-07-20T14:13:38;20.70;;;2.85;;
10705;SDS011;5404;42.656;23.336;2023-07-20T14:16:04;16.95;;;3.60;;
10705;SDS011;5404;42.656;23.336;2023-07-20T14:18:30;17.70;;;2.38;;
10705;SDS011;5404;42.656;23.336;2023-07-20T14:20:55;9.45;;;2.97;;
10705;SDS011;5404;42.656;23.336;2023-07-20T14:23:21;24.83;;;3.35;;
10705;SDS011;5404;42.656;23.336;2023-07-20T14:25:47;8.20;;;2.58;;
10705;SDS011;5404;42.656;23.336;2023-07-20T14:28:13;12.65;;;3.20;;
10705;SDS011;5404;42.656;23.336;2023-07-20T14:30:38;9.75;;;3.08;;
10705;SDS011;5404;42.656;23.336;2023-07-20T14:33:04;10.05;;;2.53;;
10705;SDS011;5404;42.656;23.336;2023-07-20T14:35:29;12.38;;;3.15;;
10705;SDS011;5404;42.656;23.336;2023-07-20T14:37:55;12.25;;;2.58;;
10705;SDS011;5404;42.656;23.336;2023-07-20T14:40:20;18.50;;;3.08;;
10705;SDS011;5404;42.656;23.336;2023-07-20T14:42:46;16.10;;;3.28;;
10705;SDS011;5404;42.656;23.336;2023-07-20T14:45:11;13.80;;;3.10;;
10705;SDS011;5404;42.656;23.336;2023-07-20T14:47:37;7.57;;;2.72;;
10705;SDS011;5404;42.656;23.336;2023-07-20T14:50:02;9.45;;;2.72;;
10705;SDS011;5404;42.656;23.336;2023-07-20T14:52:28;15.93;;;3.88;;
10705;SDS011;5404;42.656;23.336;2023-07-20T14:54:54;12.88;;;3.17;;
10705;SDS011;5404;42.656;23.336;2023-07-20T14:57:20;14.95;;;3.05;;
10705;SDS011;5404;42.656;23.336;2023-07-20T14:59:47;13.40;;;2.80;;
10705;SDS011;5404;42.656;23.336;2023-07-20T15:02:13;20.23;;;3.63;;
10705;SDS011;5404;42.656;23.336;2023-07-20T15:04:48;14.95;;;3.28;;
10705;SDS011;5404;42.656;23.336;2023-07-20T15:07:15;12.43;;;3.10;;